sensor_id;sensor_type;location;lat;lon;timestamp;temperature;humidity
45066;DHT22;30830;53.704;10.004;2022-08-19T00:00:12;18.80;99.90
45066;DHT22;30830;53.704;10.004;2022-08-19T00:02:39;18.80;99.90
45066;DHT22;30830;53.704;10.004;2022-08-19T00:05:05;18.80;99.90
45066;DHT22;30830;53.704;10.004;2022-08-19T00:07:31;18.80;99.90
45066;DHT22;30830;53.704;10.004;2022-08-19T00:09:56;18.90;99.90
45066;DHT22;30830;53.704;10.004;2022-08-19T00:12:22;18.80;99.90
45066;DHT22;30830;53.704;10.004;2022-08-19T00:14:48;18.80;99.90
45066;DHT22;30830;53.704;10.004;2022-08-19T00:17:13;18.80;99.90
45066;DHT22;30830;53.704;10.004;2022-08-19T00:19:39;18.80;99.90
45066;DHT22;30830;53.704;10.004;2022-08-19T00:22:06;18.90;99.90
45066;DHT22;30830;53.704;10.004;2022-08-19T00:24:33;18.90;99.90
45066;DHT22;30830;53.704;10.004;2022-08-19T00:26:59;18.80;99.90
45066;DHT22;30830;53.704;10.004;2022-08-19T00:29:27;18.90;99.90
45066;DHT22;30830;53.704;10.004;2022-08-19T00:31:53;18.80;99.90
45066;DHT22;30830;53.704;10.004;2022-08-19T00:34:21;18.80;99.90
45066;DHT22;30830;53.704;10.004;2022-08-19T00:36:47;18.80;99.90
45066;DHT22;30830;53.704;10.004;2022-08-19T00:39:17;18.80;99.90
45066;DHT22;30830;53.704;10.004;2022-08-19T00:41:44;18.80;99.90
45066;DHT22;30830;53.704;10.004;2022-08-19T00:44:14;18.80;99.90
45066;DHT22;30830;53.704;10.004;2022-08-19T00:46:43;18.80;99.90
45066;DHT22;30830;53.704;10.004;2022-08-19T00:49:31;18.80;99.90
45066;DHT22;30830;53.704;10.004;2022-08-19T00:52:03;18.80;99.90
45066;DHT22;30830;53.704;10.004;2022-08-19T00:54:30;18.80;99.90
45066;DHT22;30830;53.704;10.004;2022-08-19T00:56:57;18.80;99.90
45066;DHT22;30830;53.704;10.004;2022-08-19T00:59:25;18.70;99.90
45066;DHT22;30830;53.704;10.004;2022-08-19T01:01:50;18.70;99.90
45066;DHT22;30830;53.704;10.004;2022-08-19T01:04:16;18.70;99.90
45066;DHT22;30830;53.704;10.004;2022-08-19T01:06:42;18.70;99.90
45066;DHT22;30830;53.704;10.004;2022-08-19T01:09:08;18.70;99.90
45066;DHT22;30830;53.704;10.004;2022-08-19T01:11:36;18.80;99.90
45066;DHT22;30830;53.704;10.004;2022-08-19T01:14:04;18.70;99.90
45066;DHT22;30830;53.704;10.004;2022-08-19T01:16:32;18.80;99.90
45066;DHT22;30830;53.704;10.004;2022-08-19T01:18:58;18.80;99.90
45066;DHT22;30830;53.704;10.004;2022-08-19T01:21:36;18.80;99.90
45066;DHT22;30830;53.704;10.004;2022-08-19T01:24:04;18.80;99.90
45066;DHT22;30830;53.704;10.004;2022-08-19T01:26:29;18.80;99.90
45066;DHT22;30830;53.704;10.004;2022-08-19T01:28:58;18.80;99.90
45066;DHT22;30830;53.704;10.004;2022-08-19T01:31:28;18.80;99.90
45066;DHT22;30830;53.704;10.004;2022-08-19T01:33:57;18.80;99.90
45066;DHT22;30830;53.704;10.004;2022-08-19T01:36:42;18.70;99.90
45066;DHT22;30830;53.704;10.004;2022-08-19T01:39:16;18.80;99.90
45066;DHT22;30830;53.704;10.004;2022-08-19T01:41:43;18.80;99.90
45066;DHT22;30830;53.704;10.004;2022-08-19T01:44:09;18.70;99.90
45066;DHT22;30830;53.704;10.004;2022-08-19T01:46:36;18.70;99.90
45066;DHT22;30830;53.704;10.004;2022-08-19T01:49:04;18.80;99.90
45066;DHT22;30830;53.704;10.004;2022-08-19T01:51:30;18.70;99.90
45066;DHT22;30830;53.704;10.004;2022-08-19T01:53:56;18.80;99.90
45066;DHT22;30830;53.704;10.004;2022-08-19T01:56:23;18.80;99.90
45066;DHT22;30830;53.704;10.004;2022-08-19T01:59:01;18.80;99.90
45066;DHT22;30830;53.704;10.004;2022-08-19T02:01:27;18.80;99.90
45066;DHT22;30830;53.704;10.004;2022-08-19T02:03:58;18.70;99.90
45066;DHT22;30830;53.704;10.004;2022-08-19T02:06:23;18.70;99.90
45066;DHT22;30830;53.704;10.004;2022-08-19T02:08:49;18.70;99.90
45066;DHT22;30830;53.704;10.004;2022-08-19T02:11:37;18.60;99.90
45066;DHT22;30830;53.704;10.004;2022-08-19T02:14:06;18.60;99.90
45066;DHT22;30830;53.704;10.004;2022-08-19T02:16:33;18.70;99.90
45066;DHT22;30830;53.704;10.004;2022-08-19T02:18:59;18.70;99.90
45066;DHT22;30830;53.704;10.004;2022-08-19T02:21:26;18.70;99.90
45066;DHT22;30830;53.704;10.004;2022-08-19T02:23:52;18.70;99.90
45066;DHT22;30830;53.704;10.004;2022-08-19T02:26:18;18.70;99.90
45066;DHT22;30830;53.704;10.004;2022-08-19T02:28:44;18.60;99.90
45066;DHT22;30830;53.704;10.004;2022-08-19T02:31:12;18.60;99.90
45066;DHT22;30830;53.704;10.004;2022-08-19T02:33:37;18.50;99.90
45066;DHT22;30830;53.704;10.004;2022-08-19T02:36:05;18.50;99.90
45066;DHT22;30830;53.704;10.004;2022-08-19T02:38:30;18.50;99.90
45066;DHT22;30830;53.704;10.004;2022-08-19T02:41:01;18.50;99.90
45066;DHT22;30830;53.704;10.004;2022-08-19T02:43:29;18.50;99.90
45066;DHT22;30830;53.704;10.004;2022-08-19T02:45:55;18.50;99.90
45066;DHT22;30830;53.704;10.004;2022-08-19T02:48:22;18.50;99.90
45066;DHT22;30830;53.704;10.004;2022-08-19T02:50:49;18.40;99.90
45066;DHT22;30830;53.704;10.004;2022-08-19T02:53:22;18.50;99.90
45066;DHT22;30830;53.704;10.004;2022-08-19T02:55:49;18.50;99.90
45066;DHT22;30830;53.704;10.004;2022-08-19T02:58:15;18.50;99.90
45066;DHT22;30830;53.704;10.004;2022-08-19T03:00:45;18.50;99.90
45066;DHT22;30830;53.704;10.004;2022-08-19T03:03:12;18.50;99.90
45066;DHT22;30830;53.704;10.004;2022-08-19T03:05:39;18.40;99.90
45066;DHT22;30830;53.704;10.004;2022-08-19T03:08:05;18.40;99.90
45066;DHT22;30830;53.704;10.004;2022-08-19T03:10:31;18.40;99.90
45066;DHT22;30830;53.704;10.004;2022-08-19T03:12:57;18.40;99.90
45066;DHT22;30830;53.704;10.004;2022-08-19T03:15:23;18.40;99.90
45066;DHT22;30830;53.704;10.004;2022-08-19T03:17:48;18.40;99.90
45066;DHT22;30830;53.704;10.004;2022-08-19T03:20:14;18.40;99.90
45066;DHT22;30830;53.704;10.004;2022-08-19T03:22:39;18.40;99.90
45066;DHT22;30830;53.704;10.004;2022-08-19T03:25:05;18.40;99.90
45066;DHT22;30830;53.704;10.004;2022-08-19T03:27:31;18.40;99.90
45066;DHT22;30830;53.704;10.004;2022-08-19T03:29:57;18.40;99.90
45066;DHT22;30830;53.704;10.004;2022-08-19T03:32:22;18.40;99.90
45066;DHT22;30830;53.704;10.004;2022-08-19T03:34:48;18.40;99.90
45066;DHT22;30830;53.704;10.004;2022-08-19T03:37:14;18.30;99.90
45066;DHT22;30830;53.704;10.004;2022-08-19T03:39:41;18.30;99.90
45066;DHT22;30830;53.704;10.004;2022-08-19T03:42:07;18.30;99.90
45066;DHT22;30830;53.704;10.004;2022-08-19T03:44:33;18.40;99.90
45066;DHT22;30830;53.704;10.004;2022-08-19T03:47:01;18.40;99.90
45066;DHT22;30830;53.704;10.004;2022-08-19T03:49:28;18.40;99.90
45066;DHT22;30830;53.704;10.004;2022-08-19T03:51:56;18.40;99.90
45066;DHT22;30830;53.704;10.004;2022-08-19T03:54:23;18.40;99.90
45066;DHT22;30830;53.704;10.004;2022-08-19T03:56:51;18.40;99.90
45066;DHT22;30830;53.704;10.004;2022-08-19T03:59:24;18.50;99.90
45066;DHT22;30830;53.704;10.004;2022-08-19T04:01:55;18.50;99.90
45066;DHT22;30830;53.704;10.004;2022-08-19T04:04:21;18.40;99.90
45066;DHT22;30830;53.704;10.004;2022-08-19T04:06:48;18.40;99.90
45066;DHT22;30830;53.704;10.004;2022-08-19T04:09:14;18.50;99.90
45066;DHT22;30830;53.704;10.004;2022-08-19T04:11:48;18.40;99.90
45066;DHT22;30830;53.704;10.004;2022-08-19T04:14:20;18.50;99.90
45066;DHT22;30830;53.704;10.004;2022-08-19T04:16:47;18.40;99.90
45066;DHT22;30830;53.704;10.004;2022-08-19T04:19:14;18.40;99.90
45066;DHT22;30830;53.704;10.004;2022-08-19T04:21:42;18.40;99.90
45066;DHT22;30830;53.704;10.004;2022-08-19T04:24:12;18.30;99.90
45066;DHT22;30830;53.704;10.004;2022-08-19T04:26:38;18.30;99.90
45066;DHT22;30830;53.704;10.004;2022-08-19T04:29:11;18.30;99.90
45066;DHT22;30830;53.704;10.004;2022-08-19T04:31:37;18.30;99.90
45066;DHT22;30830;53.704;10.004;2022-08-19T04:34:07;18.30;99.90
45066;DHT22;30830;53.704;10.004;2022-08-19T04:36:35;18.30;99.90
45066;DHT22;30830;53.704;10.004;2022-08-19T04:39:18;18.30;99.90
45066;DHT22;30830;53.704;10.004;2022-08-19T04:41:45;18.30;99.90
45066;DHT22;30830;53.704;10.004;2022-08-19T04:44:31;18.30;99.90
45066;DHT22;30830;53.704;10.004;2022-08-19T04:46:56;18.30;99.90
45066;DHT22;30830;53.704;10.004;2022-08-19T04:49:23;18.30;99.90
45066;DHT22;30830;53.704;10.004;2022-08-19T04:51:50;18.30;99.90
45066;DHT22;30830;53.704;10.004;2022-08-19T04:54:20;18.30;99.90
45066;DHT22;30830;53.704;10.004;2022-08-19T04:56:48;18.40;99.90
45066;DHT22;30830;53.704;10.004;2022-08-19T04:59:15;18.30;99.90
45066;DHT22;30830;53.704;10.004;2022-08-19T05:01:43;18.40;99.90
45066;DHT22;30830;53.704;10.004;2022-08-19T05:04:09;18.30;99.90
45066;DHT22;30830;53.704;10.004;2022-08-19T05:06:35;18.40;99.90
45066;DHT22;30830;53.704;10.004;2022-08-19T05:09:03;18.30;99.90
45066;DHT22;30830;53.704;10.004;2022-08-19T05:11:34;18.30;99.90
45066;DHT22;30830;53.704;10.004;2022-08-19T05:14:00;18.30;99.90
45066;DHT22;30830;53.704;10.004;2022-08-19T05:16:27;18.30;99.90
45066;DHT22;30830;53.704;10.004;2022-08-19T05:18:53;18.30;99.90
45066;DHT22;30830;53.704;10.004;2022-08-19T05:21:40;18.30;99.90
45066;DHT22;30830;53.704;10.004;2022-08-19T05:24:25;18.30;99.90
45066;DHT22;30830;53.704;10.004;2022-08-19T05:26:52;18.30;99.90
45066;DHT22;30830;53.704;10.004;2022-08-19T05:29:20;18.30;99.90
45066;DHT22;30830;53.704;10.004;2022-08-19T05:31:47;18.30;99.90
45066;DHT22;30830;53.704;10.004;2022-08-19T05:34:14;18.30;99.90
45066;DHT22;30830;53.704;10.004;2022-08-19T05:36:42;18.30;99.90
45066;DHT22;30830;53.704;10.004;2022-08-19T05:39:11;18.30;99.90
45066;DHT22;30830;53.704;10.004;2022-08-19T05:41:44;18.30;99.90
45066;DHT22;30830;53.704;10.004;2022-08-19T05:44:11;18.20;99.90
45066;DHT22;30830;53.704;10.004;2022-08-19T05:46:38;18.30;99.90
45066;DHT22;30830;53.704;10.004;2022-08-19T05:49:06;18.30;99.90
45066;DHT22;30830;53.704;10.004;2022-08-19T05:51:33;18.30;99.90
45066;DHT22;30830;53.704;10.004;2022-08-19T05:53:59;18.30;99.90
45066;DHT22;30830;53.704;10.004;2022-08-19T05:56:25;18.30;99.90
45066;DHT22;30830;53.704;10.004;2022-08-19T05:58:51;18.30;99.90
45066;DHT22;30830;53.704;10.004;2022-08-19T06:01:18;18.30;99.90
45066;DHT22;30830;53.704;10.004;2022-08-19T06:03:45;18.30;99.90
45066;DHT22;30830;53.704;10.004;2022-08-19T06:06:12;18.40;99.90
45066;DHT22;30830;53.704;10.004;2022-08-19T06:08:39;18.40;99.90
45066;DHT22;30830;53.704;10.004;2022-08-19T06:11:23;18.40;99.90
45066;DHT22;30830;53.704;10.004;2022-08-19T06:13:51;18.40;99.90
45066;DHT22;30830;53.704;10.004;2022-08-19T06:16:19;18.30;99.90
45066;DHT22;30830;53.704;10.004;2022-08-19T06:18:51;18.40;99.90
45066;DHT22;30830;53.704;10.004;2022-08-19T06:21:19;18.40;99.90
45066;DHT22;30830;53.704;10.004;2022-08-19T06:23:47;18.40;99.90
45066;DHT22;30830;53.704;10.004;2022-08-19T06:26:14;18.40;99.90
45066;DHT22;30830;53.704;10.004;2022-08-19T06:28:40;18.40;99.90
45066;DHT22;30830;53.704;10.004;2022-08-19T06:31:09;18.40;99.90
45066;DHT22;30830;53.704;10.004;2022-08-19T06:33:35;18.50;99.90
45066;DHT22;30830;53.704;10.004;2022-08-19T06:36:01;18.50;99.90
45066;DHT22;30830;53.704;10.004;2022-08-19T06:38:26;18.50;99.90
45066;DHT22;30830;53.704;10.004;2022-08-19T06:41:01;18.50;99.90
45066;DHT22;30830;53.704;10.004;2022-08-19T06:43:26;18.50;99.90
45066;DHT22;30830;53.704;10.004;2022-08-19T06:45:52;18.60;99.90
45066;DHT22;30830;53.704;10.004;2022-08-19T06:48:18;18.70;99.90
45066;DHT22;30830;53.704;10.004;2022-08-19T06:50:43;18.70;99.90
45066;DHT22;30830;53.704;10.004;2022-08-19T06:53:09;18.70;99.90
45066;DHT22;30830;53.704;10.004;2022-08-19T06:55:34;18.70;99.90
45066;DHT22;30830;53.704;10.004;2022-08-19T06:58:04;18.70;99.90
45066;DHT22;30830;53.704;10.004;2022-08-19T07:00:29;18.70;99.90
45066;DHT22;30830;53.704;10.004;2022-08-19T07:02:55;18.70;99.90
45066;DHT22;30830;53.704;10.004;2022-08-19T07:05:21;18.70;99.90
45066;DHT22;30830;53.704;10.004;2022-08-19T07:07:46;18.70;99.90
45066;DHT22;30830;53.704;10.004;2022-08-19T07:10:12;18.80;99.90
45066;DHT22;30830;53.704;10.004;2022-08-19T07:12:38;18.70;99.90
45066;DHT22;30830;53.704;10.004;2022-08-19T07:15:05;18.80;99.90
45066;DHT22;30830;53.704;10.004;2022-08-19T07:17:31;18.70;99.90
45066;DHT22;30830;53.704;10.004;2022-08-19T07:19:58;18.70;99.90
45066;DHT22;30830;53.704;10.004;2022-08-19T07:22:23;18.70;99.90
45066;DHT22;30830;53.704;10.004;2022-08-19T07:24:49;18.70;99.90
45066;DHT22;30830;53.704;10.004;2022-08-19T07:27:15;18.70;99.90
45066;DHT22;30830;53.704;10.004;2022-08-19T07:29:41;18.60;99.90
45066;DHT22;30830;53.704;10.004;2022-08-19T07:32:07;18.60;99.90
45066;DHT22;30830;53.704;10.004;2022-08-19T07:34:34;18.60;99.90
45066;DHT22;30830;53.704;10.004;2022-08-19T07:37:04;18.60;99.90
45066;DHT22;30830;53.704;10.004;2022-08-19T07:39:32;18.70;99.90
45066;DHT22;30830;53.704;10.004;2022-08-19T07:42:00;18.70;99.90
45066;DHT22;30830;53.704;10.004;2022-08-19T07:44:26;18.80;99.90
45066;DHT22;30830;53.704;10.004;2022-08-19T07:46:55;18.70;99.90
45066;DHT22;30830;53.704;10.004;2022-08-19T07:49:22;18.70;99.90
45066;DHT22;30830;53.704;10.004;2022-08-19T07:52:01;18.80;99.90
45066;DHT22;30830;53.704;10.004;2022-08-19T07:54:30;18.80;99.90
45066;DHT22;30830;53.704;10.004;2022-08-19T07:56:56;18.90;99.90
45066;DHT22;30830;53.704;10.004;2022-08-19T07:59:22;18.90;99.90
45066;DHT22;30830;53.704;10.004;2022-08-19T08:01:48;19.00;99.90
45066;DHT22;30830;53.704;10.004;2022-08-19T08:04:15;19.00;99.90
45066;DHT22;30830;53.704;10.004;2022-08-19T08:07:00;19.00;99.90
45066;DHT22;30830;53.704;10.004;2022-08-19T08:09:45;19.00;99.90
45066;DHT22;30830;53.704;10.004;2022-08-19T08:12:16;19.00;99.90
45066;DHT22;30830;53.704;10.004;2022-08-19T08:14:45;19.00;99.90
45066;DHT22;30830;53.704;10.004;2022-08-19T08:17:13;19.00;99.90
45066;DHT22;30830;53.704;10.004;2022-08-19T08:19:39;19.00;99.90
45066;DHT22;30830;53.704;10.004;2022-08-19T08:22:07;19.00;99.90
45066;DHT22;30830;53.704;10.004;2022-08-19T08:24:33;19.00;99.90
45066;DHT22;30830;53.704;10.004;2022-08-19T08:27:00;19.00;99.90
45066;DHT22;30830;53.704;10.004;2022-08-19T08:29:29;19.10;99.90
45066;DHT22;30830;53.704;10.004;2022-08-19T08:31:55;19.10;99.90
45066;DHT22;30830;53.704;10.004;2022-08-19T08:34:20;19.20;99.90
45066;DHT22;30830;53.704;10.004;2022-08-19T08:36:46;19.20;99.90
45066;DHT22;30830;53.704;10.004;2022-08-19T08:39:14;19.30;99.90
45066;DHT22;30830;53.704;10.004;2022-08-19T08:44:28;19.30;99.90
45066;DHT22;30830;53.704;10.004;2022-08-19T08:47:03;19.40;99.90
45066;DHT22;30830;53.704;10.004;2022-08-19T08:49:39;19.40;99.90
45066;DHT22;30830;53.704;10.004;2022-08-19T08:52:11;19.40;99.90
45066;DHT22;30830;53.704;10.004;2022-08-19T08:54:41;19.40;99.90
45066;DHT22;30830;53.704;10.004;2022-08-19T08:57:14;19.40;99.90
45066;DHT22;30830;53.704;10.004;2022-08-19T08:59:41;19.40;99.90
45066;DHT22;30830;53.704;10.004;2022-08-19T09:02:08;19.40;99.90
45066;DHT22;30830;53.704;10.004;2022-08-19T09:04:36;19.50;99.90
45066;DHT22;30830;53.704;10.004;2022-08-19T09:07:42;19.50;99.90
45066;DHT22;30830;53.704;10.004;2022-08-19T09:10:23;19.50;99.90
45066;DHT22;30830;53.704;10.004;2022-08-19T09:15:36;19.60;99.90
45066;DHT22;30830;53.704;10.004;2022-08-19T09:18:04;19.60;99.90
45066;DHT22;30830;53.704;10.004;2022-08-19T09:20:31;19.60;99.90
45066;DHT22;30830;53.704;10.004;2022-08-19T09:22:57;19.60;99.90
45066;DHT22;30830;53.704;10.004;2022-08-19T09:25:23;19.60;99.90
45066;DHT22;30830;53.704;10.004;2022-08-19T09:27:51;19.70;99.90
45066;DHT22;30830;53.704;10.004;2022-08-19T09:30:29;19.80;99.90
45066;DHT22;30830;53.704;10.004;2022-08-19T09:32:55;19.80;99.90
45066;DHT22;30830;53.704;10.004;2022-08-19T09:35:22;19.80;99.90
45066;DHT22;30830;53.704;10.004;2022-08-19T09:37:49;19.80;99.90
45066;DHT22;30830;53.704;10.004;2022-08-19T09:40:16;19.90;99.90
45066;DHT22;30830;53.704;10.004;2022-08-19T09:42:46;19.90;99.90
45066;DHT22;30830;53.704;10.004;2022-08-19T09:45:14;20.00;99.90
45066;DHT22;30830;53.704;10.004;2022-08-19T09:47:40;20.00;99.90
45066;DHT22;30830;53.704;10.004;2022-08-19T09:50:07;20.00;99.90
45066;DHT22;30830;53.704;10.004;2022-08-19T09:52:34;20.00;99.90
45066;DHT22;30830;53.704;10.004;2022-08-19T09:55:04;20.10;99.90
45066;DHT22;30830;53.704;10.004;2022-08-19T09:57:30;20.10;99.90
45066;DHT22;30830;53.704;10.004;2022-08-19T09:59:55;20.10;99.90
45066;DHT22;30830;53.704;10.004;2022-08-19T10:02:21;20.20;99.90
45066;DHT22;30830;53.704;10.004;2022-08-19T10:04:46;20.10;99.90
45066;DHT22;30830;53.704;10.004;2022-08-19T10:07:30;20.20;99.90
45066;DHT22;30830;53.704;10.004;2022-08-19T10:09:56;20.30;99.90
45066;DHT22;30830;53.704;10.004;2022-08-19T10:12:22;20.40;99.90
45066;DHT22;30830;53.704;10.004;2022-08-19T10:14:48;20.40;99.90
45066;DHT22;30830;53.704;10.004;2022-08-19T10:17:13;20.50;99.90
45066;DHT22;30830;53.704;10.004;2022-08-19T10:19:40;20.60;99.90
45066;DHT22;30830;53.704;10.004;2022-08-19T10:22:06;20.70;99.90
45066;DHT22;30830;53.704;10.004;2022-08-19T10:24:35;20.80;99.90
45066;DHT22;30830;53.704;10.004;2022-08-19T10:27:01;20.90;99.90
45066;DHT22;30830;53.704;10.004;2022-08-19T10:29:32;20.80;99.90
45066;DHT22;30830;53.704;10.004;2022-08-19T10:32:04;20.90;99.90
45066;DHT22;30830;53.704;10.004;2022-08-19T10:34:31;20.90;99.90
45066;DHT22;30830;53.704;10.004;2022-08-19T10:36:57;20.80;99.90
45066;DHT22;30830;53.704;10.004;2022-08-19T10:39:23;20.70;99.90
45066;DHT22;30830;53.704;10.004;2022-08-19T10:41:48;20.70;99.90
45066;DHT22;30830;53.704;10.004;2022-08-19T10:44:14;20.70;99.90
45066;DHT22;30830;53.704;10.004;2022-08-19T10:46:42;20.60;99.90
45066;DHT22;30830;53.704;10.004;2022-08-19T10:49:12;20.60;99.90
45066;DHT22;30830;53.704;10.004;2022-08-19T10:51:39;20.60;99.90
45066;DHT22;30830;53.704;10.004;2022-08-19T10:54:24;20.60;99.90
45066;DHT22;30830;53.704;10.004;2022-08-19T10:57:09;20.60;99.90
45066;DHT22;30830;53.704;10.004;2022-08-19T10:59:35;20.60;99.90
45066;DHT22;30830;53.704;10.004;2022-08-19T11:02:02;20.60;99.90
45066;DHT22;30830;53.704;10.004;2022-08-19T11:04:28;20.60;99.90
45066;DHT22;30830;53.704;10.004;2022-08-19T11:06:54;20.60;99.90
45066;DHT22;30830;53.704;10.004;2022-08-19T11:09:23;20.60;99.90
45066;DHT22;30830;53.704;10.004;2022-08-19T11:11:55;20.60;99.90
45066;DHT22;30830;53.704;10.004;2022-08-19T11:14:22;20.70;99.90
45066;DHT22;30830;53.704;10.004;2022-08-19T11:16:50;20.80;99.90
45066;DHT22;30830;53.704;10.004;2022-08-19T11:19:16;20.90;99.90
45066;DHT22;30830;53.704;10.004;2022-08-19T11:21:46;21.00;99.90
45066;DHT22;30830;53.704;10.004;2022-08-19T11:24:15;21.10;99.90
45066;DHT22;30830;53.704;10.004;2022-08-19T11:26:43;21.10;99.90
45066;DHT22;30830;53.704;10.004;2022-08-19T11:29:11;21.30;99.90
45066;DHT22;30830;53.704;10.004;2022-08-19T11:31:39;21.40;99.90
45066;DHT22;30830;53.704;10.004;2022-08-19T11:34:06;21.60;99.90
45066;DHT22;30830;53.704;10.004;2022-08-19T11:36:33;21.80;99.90
45066;DHT22;30830;53.704;10.004;2022-08-19T11:39:00;22.00;99.90
45066;DHT22;30830;53.704;10.004;2022-08-19T11:41:27;22.10;99.90
45066;DHT22;30830;53.704;10.004;2022-08-19T11:43:53;22.20;99.90
45066;DHT22;30830;53.704;10.004;2022-08-19T11:46:22;22.30;99.90
45066;DHT22;30830;53.704;10.004;2022-08-19T11:48:49;22.40;99.90
45066;DHT22;30830;53.704;10.004;2022-08-19T11:51:19;22.40;99.90
45066;DHT22;30830;53.704;10.004;2022-08-19T11:53:45;22.40;99.90
45066;DHT22;30830;53.704;10.004;2022-08-19T11:56:11;22.30;99.90
45066;DHT22;30830;53.704;10.004;2022-08-19T11:58:38;22.20;99.90
45066;DHT22;30830;53.704;10.004;2022-08-19T12:01:12;22.10;99.90
45066;DHT22;30830;53.704;10.004;2022-08-19T12:03:39;22.20;99.90
45066;DHT22;30830;53.704;10.004;2022-08-19T12:06:06;22.10;99.90
45066;DHT22;30830;53.704;10.004;2022-08-19T12:08:32;22.00;99.90
45066;DHT22;30830;53.704;10.004;2022-08-19T12:10:58;22.00;99.90
45066;DHT22;30830;53.704;10.004;2022-08-19T12:13:27;22.00;99.90
45066;DHT22;30830;53.704;10.004;2022-08-19T12:15:53;22.00;99.90
45066;DHT22;30830;53.704;10.004;2022-08-19T12:18:19;22.10;99.90
45066;DHT22;30830;53.704;10.004;2022-08-19T12:20:44;22.10;99.90
45066;DHT22;30830;53.704;10.004;2022-08-19T12:23:13;22.20;99.90
45066;DHT22;30830;53.704;10.004;2022-08-19T12:25:44;22.30;99.90
45066;DHT22;30830;53.704;10.004;2022-08-19T12:28:18;22.20;99.90
45066;DHT22;30830;53.704;10.004;2022-08-19T12:30:43;22.10;99.90
45066;DHT22;30830;53.704;10.004;2022-08-19T12:33:09;22.10;99.90
45066;DHT22;30830;53.704;10.004;2022-08-19T12:35:35;22.00;99.90
45066;DHT22;30830;53.704;10.004;2022-08-19T12:38:01;22.00;99.90
45066;DHT22;30830;53.704;10.004;2022-08-19T12:40:28;22.10;99.90
45066;DHT22;30830;53.704;10.004;2022-08-19T12:42:54;22.20;99.90
45066;DHT22;30830;53.704;10.004;2022-08-19T12:45:19;22.40;99.90
45066;DHT22;30830;53.704;10.004;2022-08-19T12:47:45;22.60;99.90
45066;DHT22;30830;53.704;10.004;2022-08-19T12:50:12;22.70;99.90
45066;DHT22;30830;53.704;10.004;2022-08-19T12:52:38;22.90;99.90
45066;DHT22;30830;53.704;10.004;2022-08-19T12:55:06;23.10;99.90
45066;DHT22;30830;53.704;10.004;2022-08-19T12:57:32;23.20;99.90
45066;DHT22;30830;53.704;10.004;2022-08-19T13:00:18;23.10;99.90
45066;DHT22;30830;53.704;10.004;2022-08-19T13:02:48;23.10;99.90
45066;DHT22;30830;53.704;10.004;2022-08-19T13:05:22;23.10;99.90
45066;DHT22;30830;53.704;10.004;2022-08-19T13:07:49;23.00;99.90
45066;DHT22;30830;53.704;10.004;2022-08-19T13:10:18;23.00;99.90
45066;DHT22;30830;53.704;10.004;2022-08-19T13:12:47;23.00;99.90
45066;DHT22;30830;53.704;10.004;2022-08-19T13:15:13;23.10;99.90
45066;DHT22;30830;53.704;10.004;2022-08-19T13:17:40;23.00;99.90
45066;DHT22;30830;53.704;10.004;2022-08-19T13:20:08;23.10;99.90
45066;DHT22;30830;53.704;10.004;2022-08-19T13:22:34;23.00;99.90
45066;DHT22;30830;53.704;10.004;2022-08-19T13:25:02;23.00;99.90
45066;DHT22;30830;53.704;10.004;2022-08-19T13:27:29;23.00;99.90
45066;DHT22;30830;53.704;10.004;2022-08-19T13:29:55;23.10;99.90
45066;DHT22;30830;53.704;10.004;2022-08-19T13:32:39;23.20;99.90
45066;DHT22;30830;53.704;10.004;2022-08-19T13:35:23;23.30;99.90
45066;DHT22;30830;53.704;10.004;2022-08-19T13:37:48;23.30;99.90
45066;DHT22;30830;53.704;10.004;2022-08-19T13:40:17;23.40;99.90
45066;DHT22;30830;53.704;10.004;2022-08-19T13:42:45;23.40;99.90
45066;DHT22;30830;53.704;10.004;2022-08-19T13:45:13;23.50;99.90
45066;DHT22;30830;53.704;10.004;2022-08-19T13:47:40;23.50;99.90
45066;DHT22;30830;53.704;10.004;2022-08-19T13:50:13;23.50;99.90
45066;DHT22;30830;53.704;10.004;2022-08-19T13:52:39;23.40;99.90
45066;DHT22;30830;53.704;10.004;2022-08-19T13:55:06;23.40;99.90
45066;DHT22;30830;53.704;10.004;2022-08-19T13:57:32;23.30;99.90
45066;DHT22;30830;53.704;10.004;2022-08-19T13:59:58;23.40;99.90
45066;DHT22;30830;53.704;10.004;2022-08-19T14:02:24;23.40;99.90
45066;DHT22;30830;53.704;10.004;2022-08-19T14:04:51;23.30;99.90
45066;DHT22;30830;53.704;10.004;2022-08-19T14:07:17;23.10;99.90
45066;DHT22;30830;53.704;10.004;2022-08-19T14:09:42;23.10;99.90
45066;DHT22;30830;53.704;10.004;2022-08-19T14:12:08;23.10;99.90
45066;DHT22;30830;53.704;10.004;2022-08-19T14:14:37;23.10;99.90
45066;DHT22;30830;53.704;10.004;2022-08-19T14:17:07;23.20;99.90
45066;DHT22;30830;53.704;10.004;2022-08-19T14:19:33;23.20;99.90
45066;DHT22;30830;53.704;10.004;2022-08-19T14:21:58;23.20;99.90
45066;DHT22;30830;53.704;10.004;2022-08-19T14:24:24;23.20;99.90
45066;DHT22;30830;53.704;10.004;2022-08-19T14:26:50;23.20;99.90
45066;DHT22;30830;53.704;10.004;2022-08-19T14:29:15;23.30;99.90
45066;DHT22;30830;53.704;10.004;2022-08-19T14:31:41;23.20;99.90
45066;DHT22;30830;53.704;10.004;2022-08-19T14:34:08;23.20;99.90
45066;DHT22;30830;53.704;10.004;2022-08-19T14:36:36;23.30;99.90
45066;DHT22;30830;53.704;10.004;2022-08-19T14:39:03;23.30;99.90
45066;DHT22;30830;53.704;10.004;2022-08-19T14:41:29;23.40;99.90
45066;DHT22;30830;53.704;10.004;2022-08-19T14:43:56;23.40;99.90
45066;DHT22;30830;53.704;10.004;2022-08-19T14:46:24;23.40;99.90
45066;DHT22;30830;53.704;10.004;2022-08-19T14:48:50;23.30;99.90
45066;DHT22;30830;53.704;10.004;2022-08-19T14:51:17;23.30;99.90
45066;DHT22;30830;53.704;10.004;2022-08-19T14:53:43;23.30;99.90
45066;DHT22;30830;53.704;10.004;2022-08-19T14:56:12;23.40;99.90
45066;DHT22;30830;53.704;10.004;2022-08-19T14:58:39;23.40;99.90
45066;DHT22;30830;53.704;10.004;2022-08-19T15:01:07;23.40;99.90
45066;DHT22;30830;53.704;10.004;2022-08-19T15:03:32;23.50;99.90
45066;DHT22;30830;53.704;10.004;2022-08-19T15:06:00;23.50;99.90
45066;DHT22;30830;53.704;10.004;2022-08-19T15:08:27;23.60;99.90
45066;DHT22;30830;53.704;10.004;2022-08-19T15:10:54;23.50;99.90
45066;DHT22;30830;53.704;10.004;2022-08-19T15:13:21;23.50;99.90
45066;DHT22;30830;53.704;10.004;2022-08-19T15:15:47;23.40;99.90
45066;DHT22;30830;53.704;10.004;2022-08-19T15:18:13;23.40;99.90
45066;DHT22;30830;53.704;10.004;2022-08-19T15:20:39;23.40;99.90
45066;DHT22;30830;53.704;10.004;2022-08-19T15:23:05;23.50;99.90
45066;DHT22;30830;53.704;10.004;2022-08-19T15:25:32;23.60;99.90